createdAt,value
2016-07-12T00:26:43.974Z,953.39
2016-07-12T00:27:01.082Z,953.33
2016-07-12T00:27:38.555Z,953.33
2016-07-12T00:28:37.907Z,953.30
2016-07-12T00:29:42.432Z,953.29
2016-07-12T00:30:21.385Z,953.26
2016-07-12T00:31:41.306Z,953.24
2016-07-12T00:32:27.041Z,953.28
2016-07-12T00:33:24.000Z,953.27
2016-07-12T00:34:21.954Z,953.21
2016-07-12T00:35:44.896Z,953.18
2016-07-12T00:36:35.282Z,953.15
2016-07-12T00:37:37.400Z,953.18
2016-07-12T00:38:41.678Z,953.13
2016-07-12T00:39:34.863Z,953.11
2016-07-12T00:40:39.556Z,953.13
2016-07-12T00:41:48.204Z,953.10
2016-07-12T00:42:44.813Z,953.08
2016-07-12T00:43:34.564Z,953.06
2016-07-12T00:44:35.102Z,953.03
2016-07-12T00:45:33.643Z,952.96
2016-07-12T00:46:37.362Z,952.90
2016-07-12T00:47:35.955Z,952.89
2016-07-12T00:48:48.361Z,952.85
2016-07-12T00:49:42.877Z,952.86
2016-07-12T00:50:43.330Z,952.80
2016-07-12T00:51:48.627Z,952.77
2016-07-12T00:52:33.606Z,952.69
2016-07-12T00:53:18.239Z,952.69
2016-07-12T00:54:17.477Z,952.70
2016-07-12T00:55:16.049Z,952.72
2016-07-12T00:56:18.221Z,952.70
2016-07-12T00:57:16.654Z,952.67
2016-07-12T00:58:18.534Z,952.63
2016-07-12T00:59:19.498Z,952.62
2016-07-12T01:00:27.579Z,952.59
2016-07-12T01:01:19.802Z,952.54
2016-07-12T01:02:41.903Z,952.51
2016-07-12T01:03:28.980Z,952.48
2016-07-12T01:04:36.259Z,952.49
2016-07-12T01:05:40.364Z,952.42
2016-07-12T01:06:39.194Z,952.43
2016-07-12T01:07:30.002Z,952.39
2016-07-12T01:08:44.674Z,952.34
2016-07-12T01:09:40.934Z,952.32
2016-07-12T01:10:34.433Z,952.32
2016-07-12T01:11:47.577Z,952.31
2016-07-12T01:12:36.423Z,952.30
2016-07-12T01:13:11.332Z,952.22
2016-07-12T01:14:31.519Z,952.25
2016-07-12T01:15:34.689Z,952.29
2016-07-12T01:16:44.570Z,952.30
2016-07-12T01:17:32.783Z,952.28
2016-07-12T01:18:24.622Z,952.28
2016-07-12T01:19:35.918Z,952.26
2016-07-12T01:20:41.649Z,952.25
2016-07-12T01:21:47.630Z,952.25
2016-07-12T01:22:30.448Z,952.27
2016-07-12T01:23:28.590Z,952.26
2016-07-12T01:24:41.082Z,952.27
2016-07-12T01:25:43.465Z,952.28
2016-07-12T01:26:39.198Z,952.25
2016-07-12T01:27:32.690Z,952.26
2016-07-12T01:28:34.529Z,952.27
2016-07-12T01:29:53.375Z,952.31
2016-07-12T01:30:34.954Z,952.31
2016-07-12T01:31:34.578Z,952.31
2016-07-12T01:32:36.740Z,952.33
2016-07-12T01:33:28.779Z,952.36
2016-07-12T01:34:53.337Z,952.37
2016-07-12T01:35:29.471Z,952.35
2016-07-12T01:36:37.893Z,952.36
2016-07-12T01:37:35.466Z,952.39
2016-07-12T01:38:16.901Z,952.36
2016-07-12T01:39:39.014Z,952.41
2016-07-12T01:40:28.858Z,952.36
2016-07-12T01:41:35.290Z,952.39
2016-07-12T01:42:37.219Z,952.41
2016-07-12T01:43:47.771Z,952.38
2016-07-12T01:44:39.124Z,952.39
2016-07-12T01:45:40.567Z,952.40
2016-07-12T01:46:44.086Z,952.37
2016-07-12T01:47:34.142Z,952.42
2016-07-12T01:48:32.223Z,952.48
2016-07-12T01:49:36.858Z,952.54
2016-07-12T01:50:30.621Z,952.53
2016-07-12T01:51:42.173Z,952.59
2016-07-12T01:52:39.368Z,952.61
2016-07-12T01:53:42.587Z,952.66
2016-07-12T01:54:31.323Z,952.65
2016-07-12T01:55:43.032Z,952.65
2016-07-12T01:56:34.094Z,952.67
2016-07-12T01:57:38.611Z,952.72
2016-07-12T01:58:18.148Z,952.71
2016-07-12T01:59:24.074Z,952.71
2016-07-12T02:00:40.425Z,952.63
2016-07-12T02:01:40.528Z,952.67
2016-07-12T02:02:32.693Z,952.68
2016-07-12T02:03:20.283Z,952.67
2016-07-12T02:04:18.650Z,952.70
2016-07-12T02:05:19.941Z,952.69
2016-07-12T02:06:15.879Z,952.67
2016-07-12T02:07:18.605Z,952.67
2016-07-12T02:08:22.892Z,952.63
2016-07-12T02:09:14.926Z,952.69
2016-07-12T02:10:44.034Z,952.69
2016-07-12T02:11:33.984Z,952.68
2016-07-12T02:12:34.151Z,952.74
2016-07-12T02:13:30.312Z,952.74
2016-07-12T02:14:36.980Z,952.76
2016-07-12T02:15:47.322Z,952.80
2016-07-12T02:16:28.715Z,952.84
2016-07-12T02:17:38.243Z,952.84
2016-07-12T02:18:24.378Z,952.82
2016-07-12T02:19:44.375Z,952.89
2016-07-12T02:20:34.105Z,952.88
2016-07-12T02:21:29.605Z,952.91
2016-07-12T02:22:40.165Z,952.97
2016-07-12T02:23:28.372Z,952.97
2016-07-12T02:24:44.324Z,952.95
2016-07-12T02:25:43.982Z,952.96
2016-07-12T02:26:42.354Z,952.96
2016-07-12T02:27:42.104Z,952.97
2016-07-12T02:28:27.323Z,952.95
2016-07-12T02:29:37.512Z,952.99
2016-07-12T02:30:29.532Z,953.02
2016-07-12T02:31:43.521Z,953.03
2016-07-12T02:32:35.757Z,953.08
2016-07-12T02:33:29.339Z,953.11
2016-07-12T02:34:35.598Z,953.08
2016-07-12T02:35:54.320Z,953.07
2016-07-12T02:36:34.366Z,953.14
2016-07-12T02:37:42.358Z,953.12
2016-07-12T02:38:35.812Z,953.17
2016-07-12T02:39:32.732Z,953.16
2016-07-12T02:40:33.597Z,953.15
2016-07-12T02:41:40.265Z,953.19
2016-07-12T02:42:38.846Z,953.16
2016-07-12T02:43:42.999Z,953.20
2016-07-12T02:44:34.609Z,953.20
2016-07-12T02:45:40.973Z,953.19
2016-07-12T02:46:36.083Z,953.19
2016-07-12T02:47:41.048Z,953.20
2016-07-12T02:48:36.342Z,953.21
2016-07-12T02:49:30.144Z,953.12
2016-07-12T02:50:34.512Z,953.12
2016-07-12T02:51:47.642Z,953.08
2016-07-12T02:52:45.090Z,953.08
2016-07-12T02:53:18.052Z,953.06
2016-07-12T02:54:34.567Z,953.08
2016-07-12T02:55:43.154Z,953.10
2016-07-12T02:56:33.381Z,953.12
2016-07-12T02:57:37.822Z,953.14
2016-07-12T02:58:20.421Z,953.14
2016-07-12T02:59:37.144Z,953.18
2016-07-12T03:00:39.493Z,953.21
2016-07-12T03:01:47.751Z,953.19
2016-07-12T03:02:40.030Z,953.19
2016-07-12T03:03:22.653Z,953.28
2016-07-12T03:04:23.056Z,953.27
2016-07-12T03:05:49.603Z,953.27
2016-07-12T03:06:42.740Z,953.30
2016-07-12T03:07:48.333Z,953.34
2016-07-12T03:08:17.952Z,953.35
2016-07-12T03:09:32.406Z,953.37
2016-07-12T03:10:40.033Z,953.40
2016-07-12T03:11:20.680Z,953.40
2016-07-12T03:12:30.389Z,953.42
2016-07-12T03:13:18.526Z,953.38
2016-07-12T03:14:20.333Z,953.40
2016-07-12T03:15:14.503Z,953.38
2016-07-12T03:16:40.381Z,953.36
2016-07-12T03:17:40.678Z,953.42
2016-07-12T03:18:29.467Z,953.44
2016-07-12T03:19:36.413Z,953.50
2016-07-12T03:20:38.608Z,953.53
2016-07-12T03:21:40.966Z,953.55
2016-07-12T03:22:47.829Z,953.55
2016-07-12T03:23:33.801Z,953.57
2016-07-12T03:24:38.137Z,953.55
2016-07-12T03:25:28.458Z,953.53
2016-07-12T03:26:40.404Z,953.54
2016-07-12T03:27:42.819Z,953.55
2016-07-12T03:28:27.200Z,953.54
2016-07-12T03:29:24.213Z,953.55
2016-07-12T03:30:34.633Z,953.49
2016-07-12T03:31:39.711Z,953.54
2016-07-12T03:32:47.503Z,953.56
2016-07-12T03:33:22.062Z,953.55
2016-07-12T03:34:35.706Z,953.53
2016-07-12T03:35:48.801Z,953.51
2016-07-12T03:36:40.418Z,953.53
2016-07-12T03:37:43.053Z,953.52
2016-07-12T03:38:34.030Z,953.44
2016-07-12T03:39:47.329Z,953.36
2016-07-12T03:40:40.224Z,953.40
2016-07-12T03:41:41.945Z,953.41
2016-07-12T03:42:42.638Z,953.44
2016-07-12T03:43:51.379Z,953.43
2016-07-12T03:44:35.425Z,953.37
2016-07-12T03:45:33.333Z,953.35
2016-07-12T03:46:40.333Z,953.34
2016-07-12T03:47:51.619Z,953.34
2016-07-12T03:48:28.192Z,953.36
2016-07-12T03:49:46.398Z,953.34
2016-07-12T03:50:34.308Z,953.35
2016-07-12T03:51:39.236Z,953.35
2016-07-12T03:52:37.158Z,953.35
2016-07-12T03:53:33.290Z,953.35
2016-07-12T03:54:44.546Z,953.30
2016-07-12T03:55:43.250Z,953.26
2016-07-12T03:56:44.505Z,953.21
2016-07-12T03:57:34.808Z,953.13
2016-07-12T03:58:33.120Z,953.20
2016-07-12T03:59:21.669Z,953.27
2016-07-12T04:00:43.693Z,953.33
2016-07-12T04:01:40.846Z,953.41
2016-07-12T04:02:36.555Z,953.40
2016-07-12T04:03:35.764Z,953.46
2016-07-12T04:04:48.599Z,953.49
2016-07-12T04:05:34.829Z,953.48
2016-07-12T04:06:43.371Z,953.48
2016-07-12T04:07:43.208Z,953.52
2016-07-12T04:08:38.049Z,953.49
2016-07-12T04:09:40.034Z,953.50
2016-07-12T04:10:40.019Z,953.47
2016-07-12T04:11:34.708Z,953.47
2016-07-12T04:12:38.849Z,953.39
2016-07-12T04:13:34.425Z,953.36
2016-07-12T04:14:37.525Z,953.30
2016-07-12T04:15:24.606Z,953.31
2016-07-12T04:16:18.196Z,953.40
2016-07-12T04:17:25.482Z,953.37
2016-07-12T04:18:18.788Z,953.38
2016-07-12T04:19:16.082Z,953.36
2016-07-12T04:20:24.275Z,953.37
2016-07-12T04:21:42.702Z,953.41
2016-07-12T04:22:46.565Z,953.49
2016-07-12T04:23:31.669Z,953.51
2016-07-12T04:24:35.392Z,953.54
2016-07-12T04:25:45.350Z,953.52
2016-07-12T04:26:43.769Z,953.55
2016-07-12T04:27:48.776Z,953.49
2016-07-12T04:28:41.723Z,953.52
2016-07-12T04:29:50.863Z,953.48
2016-07-12T04:30:49.192Z,953.47
2016-07-12T04:31:42.048Z,953.45
2016-07-12T04:32:44.583Z,953.46
2016-07-12T04:33:40.993Z,953.46
2016-07-12T04:34:35.519Z,953.40
2016-07-12T04:35:31.032Z,953.41
2016-07-12T04:36:38.051Z,953.36
2016-07-12T04:37:42.577Z,953.34
2016-07-12T04:38:37.827Z,953.33
2016-07-12T04:39:37.467Z,953.31
2016-07-12T04:40:39.866Z,953.28
2016-07-12T04:41:45.471Z,953.26
2016-07-12T04:42:39.598Z,953.25
2016-07-12T04:43:33.980Z,953.29
2016-07-12T04:44:43.195Z,953.31
2016-07-12T04:45:53.731Z,953.31
2016-07-12T04:46:42.506Z,953.32
2016-07-12T04:47:42.473Z,953.29
2016-07-12T04:48:46.741Z,953.27
2016-07-12T04:49:44.260Z,953.25
2016-07-12T04:50:48.070Z,953.25
2016-07-12T04:51:38.841Z,953.22
2016-07-12T04:52:29.473Z,953.24
2016-07-12T04:53:11.959Z,953.20
2016-07-12T04:54:34.823Z,953.19
2016-07-12T04:55:43.907Z,953.14
2016-07-12T04:56:36.292Z,953.13
2016-07-12T04:57:36.547Z,953.13
2016-07-12T04:58:29.533Z,953.14
2016-07-12T04:59:36.200Z,953.09
2016-07-12T05:00:34.202Z,953.10
2016-07-12T05:01:40.405Z,953.08
2016-07-12T05:02:45.172Z,953.07
2016-07-12T05:03:25.159Z,953.01
2016-07-12T05:04:41.510Z,952.98
2016-07-12T05:05:39.357Z,952.98
2016-07-12T05:06:43.811Z,953.00
2016-07-12T05:07:40.215Z,952.97
2016-07-12T05:08:37.429Z,952.90
2016-07-12T05:09:42.992Z,952.82
2016-07-12T05:10:37.863Z,952.76
2016-07-12T05:11:21.909Z,952.70
2016-07-12T05:12:44.280Z,952.69
2016-07-12T05:13:38.640Z,952.65
2016-07-12T05:14:49.820Z,952.66
2016-07-12T05:15:43.521Z,952.65
2016-07-12T05:16:34.081Z,952.68
2016-07-12T05:17:43.901Z,952.76
2016-07-12T05:18:24.657Z,952.81
2016-07-12T05:19:40.541Z,952.87
2016-07-12T05:20:38.195Z,952.92
2016-07-12T05:21:19.102Z,952.89
2016-07-12T05:22:18.837Z,952.88
2016-07-12T05:23:20.038Z,952.82
2016-07-12T05:24:15.050Z,952.82
2016-07-12T05:25:19.091Z,952.83
2016-07-12T05:26:21.906Z,952.85
2016-07-12T05:27:12.134Z,952.84
2016-07-12T05:28:31.183Z,952.86
2016-07-12T05:29:24.370Z,952.83
2016-07-12T05:30:41.101Z,952.89
2016-07-12T05:31:46.812Z,952.95
2016-07-12T05:32:43.530Z,952.93
2016-07-12T05:33:29.052Z,952.95
2016-07-12T05:34:34.704Z,952.93
2016-07-12T05:35:38.930Z,952.93
2016-07-12T05:36:44.884Z,952.94
2016-07-12T05:37:28.632Z,952.96
2016-07-12T05:38:33.286Z,952.96
2016-07-12T05:39:31.458Z,953.00
2016-07-12T05:40:12.991Z,953.04
2016-07-12T05:41:36.995Z,953.07
2016-07-12T05:42:47.590Z,953.08
2016-07-12T05:43:32.729Z,953.11
2016-07-12T05:44:42.578Z,953.14
2016-07-12T05:45:25.270Z,953.13
2016-07-12T05:46:39.057Z,953.16
2016-07-12T05:47:42.254Z,953.14
2016-07-12T05:48:34.903Z,953.19
2016-07-12T05:49:33.252Z,953.18
2016-07-12T05:50:38.594Z,953.24
2016-07-12T05:51:36.212Z,953.27
2016-07-12T05:52:39.914Z,953.28
2016-07-12T05:53:31.792Z,953.32
2016-07-12T05:54:25.424Z,953.34
2016-07-12T05:55:33.536Z,953.38
2016-07-12T05:56:48.757Z,953.37
2016-07-12T05:57:42.990Z,953.40
2016-07-12T05:58:25.646Z,953.42
2016-07-12T05:59:24.270Z,953.41
2016-07-12T06:00:28.610Z,953.40
2016-07-12T06:01:33.842Z,953.37
2016-07-12T06:02:41.513Z,953.38
2016-07-12T06:03:27.520Z,953.37
2016-07-12T06:04:33.874Z,953.37
2016-07-12T06:05:37.742Z,953.27
2016-07-12T06:06:49.485Z,953.26
2016-07-12T06:07:43.806Z,953.31
2016-07-12T06:08:22.288Z,953.31
2016-07-12T06:09:43.336Z,953.34
2016-07-12T06:10:44.231Z,953.33
2016-07-12T06:11:40.943Z,953.33
2016-07-12T06:12:40.365Z,953.28
2016-07-12T06:13:37.008Z,953.32
2016-07-12T06:14:22.600Z,953.25
2016-07-12T06:15:47.358Z,953.29
2016-07-12T06:16:35.852Z,953.25
2016-07-12T06:17:33.854Z,953.23
2016-07-12T06:18:32.851Z,953.23
2016-07-12T06:19:50.180Z,953.22
2016-07-12T06:20:37.982Z,953.22
2016-07-12T06:21:35.193Z,953.18
2016-07-12T06:22:40.533Z,953.16
2016-07-12T06:23:17.799Z,953.19
2016-07-12T06:24:37.389Z,953.19
2016-07-12T06:25:37.136Z,953.24
2016-07-12T06:26:49.222Z,953.21
2016-07-12T06:27:19.171Z,953.24
2016-07-12T06:28:31.020Z,953.26
2016-07-12T06:29:33.670Z,953.29
2016-07-12T06:30:29.467Z,953.31
2016-07-12T06:31:23.509Z,953.34
2016-07-12T06:32:16.427Z,953.33
2016-07-12T06:33:18.110Z,953.27
2016-07-12T06:34:21.701Z,953.27
2016-07-12T06:35:31.961Z,953.24
2016-07-12T06:36:26.780Z,953.26
2016-07-12T06:37:49.681Z,953.27
2016-07-12T06:38:24.040Z,953.27
2016-07-12T06:39:26.881Z,953.28
2016-07-12T06:40:27.046Z,953.28
2016-07-12T06:41:42.795Z,953.24
2016-07-12T06:42:45.071Z,953.27
2016-07-12T06:43:54.708Z,953.29
2016-07-12T06:44:43.815Z,953.29
2016-07-12T06:45:43.162Z,953.35
2016-07-12T06:46:41.682Z,953.39
2016-07-12T06:47:43.028Z,953.44
2016-07-12T06:48:41.959Z,953.46
2016-07-12T06:49:34.910Z,953.41
2016-07-12T06:50:49.133Z,953.42
2016-07-12T06:51:38.301Z,953.39
2016-07-12T06:52:41.279Z,953.42
2016-07-12T06:53:37.431Z,953.40
2016-07-12T06:54:45.187Z,953.36
2016-07-12T06:55:45.978Z,953.42
2016-07-12T06:56:42.181Z,953.45
2016-07-12T06:57:37.975Z,953.43
2016-07-12T06:58:37.236Z,953.45
2016-07-12T06:59:35.701Z,953.45
2016-07-12T07:00:48.921Z,953.45
2016-07-12T07:01:39.270Z,953.44
2016-07-12T07:02:22.777Z,953.43
2016-07-12T07:03:29.309Z,953.46
2016-07-12T07:04:32.760Z,953.41
2016-07-12T07:05:27.571Z,953.41
2016-07-12T07:06:40.533Z,953.40
2016-07-12T07:07:42.360Z,953.40
2016-07-12T07:08:48.056Z,953.38
2016-07-12T07:09:51.420Z,953.35
2016-07-12T07:10:44.755Z,953.40
2016-07-12T07:11:40.621Z,953.42
2016-07-12T07:12:43.791Z,953.38
2016-07-12T07:13:39.972Z,953.38
2016-07-12T07:14:39.842Z,953.36
2016-07-12T07:15:27.667Z,953.39
2016-07-12T07:16:54.656Z,953.37
2016-07-12T07:17:49.030Z,953.34
2016-07-12T07:18:42.748Z,953.31
2016-07-12T07:19:43.452Z,953.33
2016-07-12T07:20:47.952Z,953.29
2016-07-12T07:21:53.960Z,953.30
2016-07-12T07:22:48.078Z,953.36
2016-07-12T07:23:48.209Z,953.32
2016-07-12T07:24:48.993Z,953.33
2016-07-12T07:25:44.240Z,953.28
2016-07-12T07:26:27.087Z,953.27
2016-07-12T07:27:44.005Z,953.30
2016-07-12T07:28:33.065Z,953.30
2016-07-12T07:29:42.424Z,953.31
2016-07-12T07:30:20.530Z,953.29
2016-07-12T07:31:53.206Z,953.31
2016-07-12T07:32:36.091Z,953.30
2016-07-12T07:33:49.232Z,953.29
2016-07-12T07:34:38.647Z,953.29
2016-07-12T07:35:43.436Z,953.30
2016-07-12T07:36:40.351Z,953.25
2016-07-12T07:37:35.847Z,953.26
2016-07-12T07:38:23.337Z,953.26
2016-07-12T07:39:33.246Z,953.22
2016-07-12T07:40:46.091Z,953.23
2016-07-12T07:41:29.231Z,953.18
2016-07-12T07:42:48.694Z,953.20
2016-07-12T07:43:39.607Z,953.14
2016-07-12T07:44:48.406Z,953.11
2016-07-12T07:45:40.499Z,953.06
2016-07-12T07:46:49.736Z,953.09
2016-07-12T07:47:24.675Z,953.07
2016-07-12T07:48:49.468Z,953.04
2016-07-12T07:49:55.109Z,953.05
2016-07-12T07:50:36.793Z,953.07
2016-07-12T07:51:16.197Z,953.13
2016-07-12T07:52:40.624Z,953.09
2016-07-12T07:53:48.051Z,953.10
2016-07-12T07:54:44.644Z,953.14
2016-07-12T07:55:33.797Z,953.14
2016-07-12T07:56:48.413Z,953.14
2016-07-12T07:57:28.402Z,953.15
2016-07-12T07:58:39.010Z,953.11
2016-07-12T07:59:30.402Z,953.11
2016-07-12T08:00:41.411Z,953.14
2016-07-12T08:01:28.801Z,953.17
2016-07-12T08:02:40.597Z,953.17
2016-07-12T08:03:40.132Z,953.18
2016-07-12T08:04:33.608Z,953.18
2016-07-12T08:05:42.133Z,953.18
2016-07-12T08:06:43.121Z,953.16
2016-07-12T08:07:40.753Z,953.19
2016-07-12T08:08:36.946Z,953.17
2016-07-12T08:09:27.942Z,953.16
2016-07-12T08:10:54.790Z,953.15
2016-07-12T08:11:23.760Z,953.15
2016-07-12T08:12:30.086Z,953.12
2016-07-12T08:13:36.511Z,953.16
2016-07-12T08:14:21.216Z,953.13
2016-07-12T08:15:37.454Z,953.12
2016-07-12T08:16:38.388Z,953.13
2016-07-12T08:17:48.189Z,953.14
2016-07-12T08:18:28.095Z,953.18
2016-07-12T08:19:39.340Z,953.19
2016-07-12T08:20:20.194Z,953.20
2016-07-12T08:21:31.212Z,953.18
2016-07-12T08:22:33.860Z,953.17
2016-07-12T08:23:34.622Z,953.15
2016-07-12T08:24:34.668Z,953.12
2016-07-12T08:25:33.924Z,953.09
2016-07-12T08:26:35.648Z,953.09
2016-07-12T08:27:33.214Z,953.05
2016-07-12T08:28:40.629Z,953.07
2016-07-12T08:29:44.102Z,953.08
2016-07-12T08:30:43.451Z,953.09
2016-07-12T08:31:43.455Z,953.06
2016-07-12T08:32:53.320Z,953.05
2016-07-12T08:33:35.506Z,953.00
2016-07-12T08:34:45.233Z,953.03
2016-07-12T08:35:38.783Z,953.04
2016-07-12T08:36:36.492Z,953.00
2016-07-12T08:37:42.522Z,953.02
2016-07-12T08:38:28.944Z,953.02
2016-07-12T08:39:32.570Z,953.00
2016-07-12T08:40:39.568Z,952.97
2016-07-12T08:41:40.900Z,953.02
2016-07-12T08:42:33.660Z,952.97
2016-07-12T08:43:51.882Z,952.95
2016-07-12T08:44:45.338Z,952.84
2016-07-12T08:45:22.819Z,952.87
2016-07-12T08:46:38.072Z,952.87
2016-07-12T08:47:43.315Z,952.86
2016-07-12T08:48:43.846Z,952.88
2016-07-12T08:49:39.583Z,952.86
2016-07-12T08:50:37.532Z,952.91
2016-07-12T08:51:43.535Z,952.89
2016-07-12T08:52:21.549Z,952.93
2016-07-12T08:53:40.144Z,952.97
2016-07-12T08:54:24.337Z,952.95
2016-07-12T08:55:32.917Z,952.92
2016-07-12T08:56:38.044Z,952.91
2016-07-12T08:57:42.092Z,952.94
2016-07-12T08:58:32.647Z,952.93
2016-07-12T08:59:34.892Z,952.98
2016-07-12T09:00:43.313Z,952.96
2016-07-12T09:01:36.361Z,952.97
2016-07-12T09:02:45.375Z,952.98
2016-07-12T09:03:28.975Z,953.00
2016-07-12T09:04:33.933Z,953.01
2016-07-12T09:05:30.698Z,952.99
2016-07-12T09:06:21.661Z,952.99
2016-07-12T09:07:37.510Z,952.97
2016-07-12T09:08:43.248Z,953.05
2016-07-12T09:09:39.476Z,953.04
2016-07-12T09:10:25.158Z,953.05
2016-07-12T09:11:26.359Z,953.10
2016-07-12T09:12:59.300Z,953.12
2016-07-12T09:13:32.223Z,953.09
2016-07-12T09:14:39.582Z,953.13
2016-07-12T09:15:39.280Z,953.12
2016-07-12T09:16:20.993Z,953.10
2016-07-12T09:17:10.839Z,953.10
2016-07-12T09:18:11.804Z,953.15
2016-07-12T09:19:09.812Z,953.11
2016-07-12T09:20:40.253Z,953.18
2016-07-12T09:21:25.456Z,953.16
2016-07-12T09:22:16.473Z,953.17
2016-07-12T09:23:38.715Z,953.19
2016-07-12T09:24:42.823Z,953.16
2016-07-12T09:25:32.057Z,953.17
2016-07-12T09:26:18.714Z,953.13
2016-07-12T09:27:39.902Z,953.10
2016-07-12T09:28:34.605Z,953.01
2016-07-12T09:29:33.393Z,953.03
2016-07-12T09:30:44.121Z,952.96
2016-07-12T09:31:28.135Z,952.97
2016-07-12T09:32:28.637Z,952.97
2016-07-12T09:33:13.915Z,953.02
2016-07-12T09:34:44.071Z,952.99
2016-07-12T09:35:35.372Z,953.03
2016-07-12T09:36:22.168Z,953.10
2016-07-12T09:37:41.252Z,953.13
2016-07-12T09:38:38.601Z,953.17
2016-07-12T09:39:40.808Z,953.14
2016-07-12T09:40:41.470Z,953.14
2016-07-12T09:41:40.177Z,953.16
2016-07-12T09:42:41.133Z,953.04
2016-07-12T09:43:39.566Z,953.04
2016-07-12T09:44:35.668Z,952.99
2016-07-12T09:45:33.900Z,953.02
2016-07-12T09:46:39.658Z,952.99
2016-07-12T09:47:45.648Z,952.91
2016-07-12T09:48:39.802Z,952.89
2016-07-12T09:49:39.065Z,952.89
2016-07-12T09:50:26.820Z,952.91
2016-07-12T09:51:39.126Z,952.89
2016-07-12T09:52:47.139Z,952.85
2016-07-12T09:53:40.407Z,952.84
2016-07-12T09:54:39.515Z,952.82
2016-07-12T09:55:39.918Z,952.80
2016-07-12T09:56:40.890Z,952.74
2016-07-12T09:57:40.143Z,952.72
2016-07-12T09:58:41.346Z,952.72
2016-07-12T09:59:47.728Z,952.73
2016-07-12T10:00:43.045Z,952.73
2016-07-12T10:01:37.468Z,952.74
2016-07-12T10:02:34.126Z,952.77
2016-07-12T10:03:28.538Z,952.73
2016-07-12T10:04:40.638Z,952.76
2016-07-12T10:05:38.640Z,952.72
2016-07-12T10:06:39.994Z,952.70
2016-07-12T10:07:41.101Z,952.71
2016-07-12T10:08:40.809Z,952.70
2016-07-12T10:09:40.183Z,952.67
2016-07-12T10:10:34.168Z,952.67
2016-07-12T10:11:36.529Z,952.64
2016-07-12T10:12:33.659Z,952.65
2016-07-12T10:13:27.590Z,952.66
2016-07-12T10:14:39.062Z,952.65
2016-07-12T10:15:43.032Z,952.65
2016-07-12T10:16:47.402Z,952.64
2016-07-12T10:17:41.328Z,952.68
2016-07-12T10:18:37.396Z,952.66
2016-07-12T10:19:41.511Z,952.68
2016-07-12T10:20:34.479Z,952.65
2016-07-12T10:21:38.604Z,952.67
2016-07-12T10:22:44.624Z,952.66
2016-07-12T10:23:40.214Z,952.60
2016-07-12T10:24:39.901Z,952.61
2016-07-12T10:25:36.521Z,952.61
2016-07-12T10:26:33.861Z,952.59
2016-07-12T10:27:42.491Z,952.61
2016-07-12T10:28:35.651Z,952.64
2016-07-12T10:29:43.885Z,952.63
2016-07-12T10:30:39.997Z,952.62
2016-07-12T10:31:38.547Z,952.61
2016-07-12T10:32:39.936Z,952.65
2016-07-12T10:33:36.548Z,952.68
2016-07-12T10:35:31.221Z,952.66
2016-07-12T10:35:43.843Z,952.67
2016-07-12T10:36:37.773Z,952.66
2016-07-12T10:37:37.938Z,952.67
2016-07-12T10:38:29.722Z,952.66
2016-07-12T10:39:37.193Z,952.63
2016-07-12T10:40:37.030Z,952.61
2016-07-12T10:41:39.829Z,952.55
2016-07-12T10:42:40.899Z,952.53
2016-07-12T10:43:40.577Z,952.48
2016-07-12T10:44:44.600Z,952.51
2016-07-12T10:45:10.973Z,952.55
2016-07-12T10:46:22.643Z,952.54
2016-07-12T10:47:26.993Z,952.55
2016-07-12T10:48:26.304Z,952.50
2016-07-12T10:49:26.893Z,952.53
2016-07-12T10:50:16.640Z,952.56
2016-07-12T10:51:22.921Z,952.52
2016-07-12T10:52:27.327Z,952.45
2016-07-12T10:53:22.999Z,952.46
2016-07-12T10:54:21.891Z,952.48
2016-07-12T10:55:25.074Z,952.46
2016-07-12T10:56:21.489Z,952.49
2016-07-12T10:57:25.018Z,952.46
2016-07-12T10:58:21.914Z,952.45
2016-07-12T10:59:31.601Z,952.43
2016-07-12T11:00:23.055Z,952.44
2016-07-12T11:01:28.797Z,952.40
2016-07-12T11:02:27.985Z,952.42
2016-07-12T11:03:24.614Z,952.39
2016-07-12T11:04:23.802Z,952.41
2016-07-12T11:05:39.404Z,952.38
2016-07-12T11:06:14.498Z,952.36
2016-07-12T11:07:24.950Z,952.41
2016-07-12T11:08:24.855Z,952.38
2016-07-12T11:09:20.618Z,952.39
2016-07-12T11:10:17.976Z,952.35
2016-07-12T11:11:14.330Z,952.43
2016-07-12T11:12:19.563Z,952.37
2016-07-12T11:13:13.085Z,952.38
2016-07-12T11:14:16.297Z,952.38
2016-07-12T11:15:15.088Z,952.41
2016-07-12T11:16:17.951Z,952.45
2016-07-12T11:17:21.339Z,952.47
2016-07-12T11:18:25.954Z,952.50
2016-07-12T11:19:26.477Z,952.51
2016-07-12T11:20:25.827Z,952.50
2016-07-12T11:21:30.285Z,952.54
2016-07-12T11:22:21.680Z,952.52
2016-07-12T11:23:15.292Z,952.52
2016-07-12T11:24:18.532Z,952.48
2016-07-12T11:25:18.076Z,952.47
2016-07-12T11:26:15.277Z,952.45
2016-07-12T11:27:15.074Z,952.42
2016-07-12T11:28:25.485Z,952.46
2016-07-12T11:29:21.380Z,952.45
2016-07-12T11:30:19.768Z,952.45
2016-07-12T11:31:22.013Z,952.45
2016-07-12T11:32:17.552Z,952.44
2016-07-12T11:33:29.526Z,952.44
2016-07-12T11:34:25.745Z,952.48
2016-07-12T11:35:15.282Z,952.48
2016-07-12T11:36:13.736Z,952.55
2016-07-12T11:37:18.822Z,952.48
2016-07-12T11:38:30.162Z,952.47
2016-07-12T11:39:18.122Z,952.49
2016-07-12T11:40:25.860Z,952.42
2016-07-12T11:41:15.126Z,952.38
2016-07-12T11:42:15.104Z,952.40
2016-07-12T11:43:17.724Z,952.40
2016-07-12T11:44:16.621Z,952.40
2016-07-12T11:45:16.985Z,952.42
2016-07-12T11:46:15.306Z,952.41
2016-07-12T11:47:26.153Z,952.40
2016-07-12T11:48:23.733Z,952.36
2016-07-12T11:49:35.483Z,952.38
2016-07-12T11:50:20.252Z,952.37
2016-07-12T11:51:14.846Z,952.38
2016-07-12T11:52:15.526Z,952.36
2016-07-12T11:53:24.760Z,952.35
2016-07-12T11:54:21.503Z,952.32
2016-07-12T11:55:21.883Z,952.33
2016-07-12T11:56:23.796Z,952.26
2016-07-12T11:57:22.940Z,952.25
2016-07-12T11:58:19.287Z,952.22
2016-07-12T11:59:29.778Z,952.24
2016-07-12T12:00:18.379Z,952.29
2016-07-12T12:01:25.720Z,952.28
2016-07-12T12:02:22.093Z,952.36
2016-07-12T12:03:16.771Z,952.35
2016-07-12T12:04:19.226Z,952.38
2016-07-12T12:05:13.910Z,952.37
2016-07-12T12:06:14.775Z,952.36
2016-07-12T12:07:15.606Z,952.33
2016-07-12T12:08:15.594Z,952.31
2016-07-12T12:09:23.359Z,952.31
2016-07-12T12:10:16.646Z,952.30
2016-07-12T12:11:17.201Z,952.30
2016-07-12T12:12:18.894Z,952.32
2016-07-12T12:13:26.735Z,952.32
2016-07-12T12:14:15.885Z,952.32
2016-07-12T12:15:20.445Z,952.29
2016-07-12T12:16:20.751Z,952.31
2016-07-12T12:17:23.828Z,952.34
2016-07-12T12:18:13.410Z,952.31
2016-07-12T12:19:21.387Z,952.34
2016-07-12T12:20:17.683Z,952.34
2016-07-12T12:21:18.469Z,952.38
2016-07-12T12:22:18.335Z,952.36
2016-07-12T12:23:19.365Z,952.39
2016-07-12T12:24:19.067Z,952.38
2016-07-12T12:25:15.384Z,952.38
2016-07-12T12:26:18.317Z,952.37
2016-07-12T12:27:15.229Z,952.37
2016-07-12T12:28:17.012Z,952.31
2016-07-12T12:29:16.953Z,952.32
2016-07-12T12:30:18.842Z,952.28
2016-07-12T12:31:16.925Z,952.24
2016-07-12T12:32:14.530Z,952.19
2016-07-12T12:33:19.061Z,952.20
2016-07-12T12:34:21.624Z,952.17
2016-07-12T12:35:21.088Z,952.17
2016-07-12T12:36:14.084Z,952.13
2016-07-12T12:37:14.166Z,952.04
2016-07-12T12:38:15.391Z,952.01
2016-07-12T12:39:20.612Z,951.95
2016-07-12T12:40:16.695Z,952.00
2016-07-12T12:41:23.913Z,951.93
2016-07-12T12:42:18.223Z,951.94
2016-07-12T12:43:15.451Z,951.95
2016-07-12T12:44:16.347Z,951.96
2016-07-12T12:45:26.185Z,951.85
2016-07-12T12:46:20.244Z,951.84
2016-07-12T12:47:17.832Z,951.86
2016-07-12T12:48:18.936Z,951.83
2016-07-12T12:49:16.069Z,951.80
2016-07-12T12:50:14.036Z,951.78
2016-07-12T12:51:20.291Z,951.75
2016-07-12T12:52:18.760Z,951.76
2016-07-12T12:53:25.118Z,951.76